This is the latest recevied weather packets stored in our database for station/object LRBM. If no packets are shown the sender has not sent any weather packets the latest 10 day(s).
| Time | Temp. | Humidity | Pressure | Rain* | Wind** | Luminosity | Snow |
|---|---|---|---|---|---|---|---|
| 1788711517 | 22.22° C | 29% | 1023 hPa | - | - | - | - |
| 1788707916 | 22.78° C | 27% | 1023 hPa | - | - | - | - |
| 1788704347 | 22.78° C | 27% | 1023 hPa | - | - | - | - |
| 1788698012 | 22.78° C | 29% | 1023 hPa | - | - | - | - |
| 1788697109 | 22.78° C | 29% | 1023 hPa | - | - | - | - |
| 1788696212 | 22.78° C | 29% | 1023 hPa | - | - | - | - |
| 1788694415 | 22.22° C | 36% | 1023 hPa | - | - | - | - |
| 1788690815 | 22.22° C | 36% | 1023 hPa | - | - | - | - |
| 1788689912 | 22.22° C | 38% | 1023 hPa | - | - | - | - |
| 1788689016 | 22.22° C | 38% | 1023 hPa | - | - | - | - |
| 1788688116 | 22.22° C | 38% | 1022 hPa | - | - | - | - |
| 1788687216 | 22.22° C | 38% | 1022 hPa | - | - | - | - |
| 1788686317 | 21.11° C | 40% | 1022 hPa | - | - | - | - |
| 1788685417 | 21.11° C | 40% | 1022 hPa | - | - | - | - |
| 1788683615 | 20° C | 43% | 1022 hPa | - | - | - | - |
| 1788682715 | 20° C | 49% | 1022 hPa | - | - | - | - |
| 1788680015 | 17.78° C | 68% | 1022 hPa | - | - | - | - |
| 1788679116 | 17.22° C | 73% | 1022 hPa | - | - | - | - |
| 1788678215 | 17.22° C | 73% | 1022 hPa | - | - | - | - |
| 1788677315 | 16.11° C | 83% | 1022 hPa | - | - | - | - |
| 1788676415 | 16.11° C | 83% | 1022 hPa | - | - | - | - |
| 1788674615 | 15° C | 82% | 1022 hPa | - | - | - | - |
| 1788672815 | 15° C | 88% | 1022 hPa | - | - | - | - |
| 1788671915 | 12.78° C | 94% | 1021 hPa | - | - | - | - |
| 1788671093 | 12.78° C | 94% | 1021 hPa | - | - | - | - |
* Rain since midnight (hover to see other rain measurements)
** Current wind speed in m/s (hover to see current wind gust speed)